Date,TemperatureHighF,TemperatureAvgF,TemperatureLowF,DewpointHighF,DewpointAvgF,DewpointLowF,HumidityHigh,HumidityAvg,HumidityLow,PressureMaxIn,PressureMinIn,WindSpeedMaxMPH,WindSpeedAvgMPH,GustSpeedMaxMPH,PrecipitationSumIn
2013-1-1,34.6,31.5,24.4,26.9,22.7,12.5,76,70,60,30.07,29.94,5,1,17,0.01
2013-1-2,27.2,22.4,18.8,13.3,11.6,9.3,69,63,54,30.28,30.06,6,1,16,0.00
2013-1-3,33.1,21.9,6.9,18.8,12.2,3.1,86,67,47,30.27,30.13,9,1,16,0.00
2013-1-4,32.9,30.2,28.2,20.3,18.5,16.7,71,62,56,30.17,30.07,13,4,24,0.00
2013-1-5,34.4,28.6,25.1,21.6,19.5,17.2,78,69,58,30.43,30.17,6,1,21,0.00
2013-1-6,38.3,33.8,27.0,29.3,25.2,20.7,82,71,57,30.19,30.00,3,1,12,0.02
2013-1-7,36.3,32.8,22.2,28.8,25.0,18.9,89,73,61,30.42,30.15,4,1,12,0.00
2013-1-8,45.1,27.8,16.9,26.0,20.6,14.2,91,76,46,30.42,30.34,2,0,9,0.00
2013-1-9,46.4,32.5,18.6,38.5,25.8,16.1,91,78,52,30.38,30.20,8,1,21,0.00
2013-1-10,43.9,36.0,30.1,27.8,26.3,24.5,83,68,53,30.61,30.37,5,0,19,0.00
2013-1-11,41.1,37.6,32.7,35.5,30.8,25.5,96,77,61,30.47,30.10,5,1,13,0.27
2013-1-12,46.5,38.4,35.2,41.9,36.8,34.4,97,94,83,30.17,30.10,2,0,5,0.01
2013-1-13,54.1,41.3,34.9,50.0,39.9,34.1,98,95,84,30.10,29.93,2,0,4,0.00
2013-1-14,48.9,41.6,34.9,48.3,33.3,23.5,98,74,51,30.35,29.92,5,1,14,0.14
2013-1-15,34.3,30.9,24.5,27.4,23.7,21.4,90,75,63,30.40,30.21,3,0,6,0.00
2013-1-16,34.7,31.3,28.7,32.6,29.2,26.4,94,92,80,30.16,29.89,3,0,6,0.08
2013-1-17,36.5,33.4,30.9,27.6,25.9,24.6,82,74,65,30.16,29.98,4,1,13,0.13
2013-1-18,32.4,25.5,19.7,23.0,9.5,3.5,72,51,37,30.50,30.09,10,1,17,0.00
2013-1-19,53.6,41.4,27.6,19.5,14.1,9.0,46,34,23,30.30,29.81,9,2,19,0.17
2013-1-20,47.1,36.7,20.3,28.6,17.9,8.2,59,47,30,30.13,29.70,16,4,29,0.00
2013-1-21,26.0,21.5,14.6,20.7,12.2,2.5,81,67,54,30.12,29.91,5,1,17,0.00
2013-1-22,14.0,9.9,6.3,1.2,-2.5,-5.0,66,56,44,30.32,30.00,11,3,20,0.00
2013-1-23,15.9,9.3,5.4,0.0,-2.5,-5.0,77,58,41,30.34,30.19,8,2,15,0.00
2013-1-24,23.2,13.2,5.2,7.6,2.2,-1.0,83,63,40,30.57,30.15,2,0,11,0.00
2013-1-25,16.2,11.7,7.7,9.8,4.0,-1.0,84,71,49,30.55,30.10,3,0,7,0.00
2013-1-26,27.6,19.9,12.1,20.2,14.2,7.9,89,79,62,30.44,30.13,2,0,4,0.05
2013-1-27,32.8,23.2,12.3,15.6,12.9,8.9,86,66,43,30.62,30.46,5,0,9,0.01
2013-1-28,43.8,31.7,26.9,43.2,28.6,16.1,98,89,61,30.44,30.02,4,1,10,0.08
2013-1-29,46.8,40.3,34.1,46.2,39.4,33.3,98,97,92,30.11,29.95,2,0,6,0.08
2013-1-30,60.4,47.9,32.1,55.8,46.2,31.3,99,94,83,29.94,29.17,11,1,22,1.17
2013-1-31,54.2,32.5,22.2,51.9,22.9,9.7,93,68,51,29.84,29.14,14,5,26,0.47
2013-2-1,23.3,19.3,14.0,18.0,7.4,1.4,81,60,47,30.36,29.82,15,3,22,0.00
2013-2-2,23.3,17.5,11.2,18.0,8.9,0.7,88,69,57,30.36,30.02,5,1,18,0.00
2013-2-3,27.9,22.8,19.2,23.0,17.1,10.5,90,79,61,30.02,29.82,6,1,13,0.07
2013-2-4,28.4,22.4,17.8,21.9,12.1,5.3,90,65,48,30.07,29.91,6,2,20,0.00
2013-2-5,30.1,26.9,23.9,26.4,23.5,20.9,92,87,69,29.96,29.86,2,0,10,0.01
2013-2-6,35.5,28.5,19.1,23.4,18.3,12.1,79,66,43,30.39,29.95,6,1,16,0.03
2013-2-7,36.2,26.1,16.1,21.1,16.7,10.8,86,68,52,30.46,30.20,11,2,14,0.01
2013-2-8,34.9,31.8,22.7,32.4,26.6,13.7,93,82,66,30.19,29.80,11,2,21,0.05
2013-2-9,35.8,24.7,18.9,16.2,12.7,9.7,74,61,41,30.44,30.04,6,1,13,0.02
2013-2-10,39.8,26.9,11.2,18.9,14.5,7.8,88,63,40,30.48,30.14,4,1,13,0.01
2013-2-11,57.0,41.8,33.1,43.6,31.4,17.7,92,69,33,30.13,29.63,11,3,27,0.08
2013-2-12,38.5,33.5,24.1,24.6,21.9,20.3,87,63,55,30.04,29.83,12,2,28,0.00
2013-2-13,39.6,28.8,18.6,30.6,24.0,16.3,95,83,56,29.98,29.72,3,0,5,0.00
2013-2-14,42.6,33.3,23.9,29.8,26.6,22.1,95,78,58,30.01,29.79,7,0,12,0.07
2013-2-15,43.8,38.7,30.6,30.8,26.4,22.1,83,62,44,30.03,29.91,7,2,14,0.00
2013-2-16,35.0,29.1,23.3,25.5,15.1,7.4,82,58,31,30.03,29.91,6,0,9,0.00
2013-2-17,28.2,20.5,15.4,11.5,6.5,2.8,68,55,39,30.23,29.89,9,2,21,0.00
2013-2-18,37.0,25.3,11.7,11.1,6.8,3.2,71,47,27,30.37,30.07,5,1,13,0.00
2013-2-19,41.1,34.5,27.8,35.5,24.0,11.9,92,67,37,30.06,29.65,13,2,20,0.14
2013-2-20,27.0,21.8,18.6,18.9,9.6,6.0,79,59,50,30.18,29.86,10,4,21,0.00
2013-2-21,33.8,24.2,20.0,14.7,11.7,8.1,73,59,44,30.38,30.14,7,1,13,0.00
2013-2-22,29.7,25.6,18.9,24.2,18.7,12.5,83,75,62,30.40,30.18,6,2,15,0.00
2013-2-23,38.3,33.1,29.4,33.2,28.8,23.0,90,84,77,30.18,29.88,5,1,13,0.01
2013-2-24,34.6,31.3,27.9,30.8,22.7,16.8,95,72,50,30.13,29.85,4,1,13,0.00
2013-2-25,44.9,33.2,21.6,22.5,19.4,16.3,83,58,35,30.23,30.13,4,1,10,0.00
2013-2-26,38.0,34.5,31.5,32.9,26.4,20.3,94,73,57,30.20,29.78,11,3,19,0.37
2013-2-27,41.3,36.1,32.8,37.7,33.5,31.5,96,91,77,29.75,29.61,3,0,11,0.63
2013-2-28,37.8,35.5,32.8,32.8,29.9,28.1,89,80,70,29.73,29.62,7,2,12,0.02
2013-3-1,36.8,34.0,29.7,28.8,24.8,19.7,80,69,59,29.92,29.73,5,1,11,0.00
2013-3-2,35.8,29.7,26.6,21.1,18.7,16.1,79,64,47,29.92,29.84,5,1,11,0.00
2013-3-3,30.3,27.0,24.5,19.8,17.8,15.1,79,68,62,29.95,29.85,10,1,14,0.00
2013-3-4,32.1,25.3,20.8,17.3,15.5,14.0,78,67,52,30.10,29.95,3,1,19,0.00
2013-3-5,40.6,29.7,20.0,24.0,20.2,14.1,80,68,50,30.12,29.87,5,1,7,0.00
2013-3-6,41.5,37.1,33.8,27.7,25.5,23.4,71,63,54,30.08,29.79,5,2,14,0.00
2013-3-7,46.0,38.0,31.9,27.3,24.9,22.9,73,60,41,30.21,30.08,3,1,11,0.00
2013-3-8,48.0,35.7,29.5,27.5,23.2,19.2,89,62,38,30.39,30.19,6,1,14,0.01
2013-3-9,57.0,37.8,21.0,26.2,21.1,16.2,88,56,21,30.41,30.28,3,0,7,0.00
2013-3-10,61.6,45.8,28.4,28.5,23.6,20.6,79,47,24,30.29,30.13,6,1,15,0.00
2013-3-11,54.2,50.5,45.7,47.9,30.8,18.6,87,49,29,30.13,29.81,12,3,25,0.07
2013-3-12,54.4,44.4,37.2,49.4,38.8,27.9,95,81,66,29.97,29.74,21,3,28,0.85
2013-3-13,41.3,34.1,27.8,28.7,24.1,15.2,86,67,44,30.05,29.88,9,2,21,0.01
2013-3-14,37.9,30.2,26.3,20.4,13.6,9.4,78,51,31,30.13,30.03,9,3,21,0.00
2013-3-15,46.8,35.9,23.2,31.2,22.8,13.5,76,59,50,30.13,29.79,9,2,23,0.00
2013-3-16,36.9,32.4,29.5,31.0,29.1,26.1,93,88,75,29.96,29.74,4,0,6,0.10
2013-3-17,35.6,30.4,25.0,28.4,21.8,18.3,94,72,51,30.29,29.96,3,0,6,0.21
2013-3-18,30.9,27.3,22.4,28.3,21.1,14.8,91,78,58,30.31,29.90,10,3,18,0.00
2013-3-19,45.4,35.3,29.8,33.4,25.9,11.6,94,72,26,29.93,29.71,10,2,21,0.42
2013-3-20,39.2,32.2,27.5,20.6,17.0,12.8,71,54,37,29.95,29.82,13,2,19,0.01
2013-3-21,29.5,24.9,19.5,17.3,12.9,6.6,86,62,41,29.87,29.81,10,1,17,0.00
2013-3-22,31.9,28.5,25.3,22.6,20.3,17.9,89,72,59,30.02,29.84,5,2,17,0.04
2013-3-23,38.8,32.1,25.8,21.3,19.8,17.7,71,61,47,30.06,29.99,7,1,16,0.00
2013-3-24,42.9,32.9,21.1,22.1,19.0,16.6,85,59,37,30.04,29.65,10,1,10,0.00
2013-3-25,37.5,33.6,30.9,32.0,29.0,20.0,95,85,49,29.72,29.55,12,1,14,0.32
2013-3-26,48.2,37.3,29.8,33.5,29.3,27.0,96,75,46,29.99,29.72,5,1,14,0.21
2013-3-27,44.1,38.0,34.3,29.0,26.2,24.8,71,63,47,30.11,29.98,10,1,19,0.02
2013-3-28,44.1,38.9,34.1,30.6,27.3,23.1,87,64,44,30.24,30.05,4,1,11,0.01
2013-3-29,50.4,41.1,31.3,30.3,27.6,23.0,79,61,37,30.25,30.15,2,0,11,0.00
2013-3-30,56.0,40.0,25.1,27.7,20.5,12.2,85,52,19,30.25,30.10,5,1,10,0.00
2013-3-31,46.8,38.3,29.8,41.1,32.1,20.8,95,79,51,30.10,29.73,5,1,12,0.25
2013-4-1,47.1,41.0,29.1,41.9,27.2,8.3,96,63,25,29.99,29.68,11,2,25,0.09
2013-4-2,38.6,31.8,26.0,17.0,12.4,8.0,68,45,32,30.19,29.99,11,2,19,0.00
2013-4-3,39.2,31.7,23.0,18.4,11.9,5.4,67,45,27,30.43,30.16,5,1,24,0.00
2013-4-4,51.1,35.2,18.3,16.6,11.6,5.2,75,42,16,30.43,30.03,6,1,15,0.00
2013-4-5,59.3,43.3,27.2,28.1,17.6,11.3,64,38,19,30.11,29.87,6,1,13,0.00
2013-4-6,53.8,40.6,26.3,18.8,16.0,11.3,71,41,18,30.34,30.12,7,1,14,0.00
2013-4-7,67.1,53.4,42.8,48.8,31.8,16.6,89,46,30,30.16,29.88,9,3,16,0.05
2013-4-8,74.2,58.9,38.6,46.3,42.7,37.0,95,61,32,30.08,29.89,5,1,13,0.00
2013-4-9,80.5,69.6,61.2,51.2,47.1,39.5,69,46,25,30.04,29.85,12,2,14,0.00
2013-4-10,81.6,70.1,59.9,62.7,55.7,49.5,94,63,40,29.89,29.75,9,2,20,0.70
2013-4-11,60.2,51.7,43.6,58.1,49.0,42.2,96,91,81,29.92,29.76,6,2,14,0.03
2013-4-12,54.1,49.4,44.9,50.3,45.9,32.9,97,88,60,29.82,29.62,10,3,22,0.60
2013-4-13,55.0,46.2,40.5,34.0,32.0,29.0,71,59,40,29.97,29.82,10,2,20,0.00
2013-4-14,61.2,48.5,35.3,34.9,28.5,24.1,68,48,27,30.14,29.97,6,1,16,0.00
2013-4-15,67.4,55.2,44.1,47.3,41.7,34.0,75,61,46,30.19,30.09,13,2,20,0.00
2013-4-16,71.6,61.7,55.3,60.5,53.3,46.4,94,75,59,30.20,30.02,6,2,19,0.34
2013-4-17,70.4,60.0,51.0,57.4,43.6,29.2,96,60,27,30.25,30.11,6,1,17,0.02
2013-4-18,65.2,59.8,55.6,59.1,50.7,34.4,89,73,40,30.19,29.89,11,3,18,0.00
2013-4-19,71.8,61.5,47.1,61.8,53.1,32.9,90,74,57,29.87,29.46,9,3,24,0.89
2013-4-20,48.0,42.3,33.5,33.7,27.0,20.7,73,55,37,30.40,29.78,11,3,21,0.02
2013-4-21,53.3,39.3,24.5,25.3,21.1,18.7,86,52,26,30.62,30.42,4,1,12,0.00
2013-4-22,56.7,45.4,32.5,30.4,26.6,20.8,80,51,25,30.57,30.39,12,3,21,0.00
2013-4-23,61.8,48.8,31.9,39.4,33.6,27.8,88,58,37,30.40,30.06,7,2,13,0.00
2013-4-24,72.3,54.9,41.5,57.4,44.0,34.6,92,68,45,30.07,29.68,10,2,20,0.60
2013-4-25,60.4,48.0,37.0,34.3,29.1,19.3,80,52,21,30.32,30.09,7,2,17,0.00
2013-4-26,63.4,49.1,34.4,35.5,28.6,18.5,90,51,18,30.47,30.33,3,1,9,0.00
2013-4-27,71.5,52.5,30.6,35.3,30.6,27.0,90,49,20,30.44,30.23,7,1,10,0.00
2013-4-28,63.2,54.3,45.5,48.4,41.1,35.3,89,63,44,30.23,30.08,7,2,16,0.23
2013-4-29,56.5,54.1,51.7,53.3,47.7,38.7,91,80,56,30.09,30.04,11,2,15,0.00
2013-4-30,60.7,56.8,51.9,52.6,51.3,49.0,92,82,71,30.26,30.09,5,2,13,0.01
2013-5-1,72.5,60.5,49.4,50.3,34.8,24.8,92,45,19,30.39,30.27,9,2,14,0.00
2013-5-2,73.2,59.9,40.5,41.9,36.0,28.0,87,46,19,30.42,30.28,9,2,15,0.00
2013-5-3,71.3,57.8,42.3,43.3,39.9,36.3,89,55,30,30.36,30.26,9,2,15,0.00
2013-5-4,71.1,57.6,38.9,44.2,40.3,36.0,92,56,31,30.29,30.15,9,2,15,0.00
2013-5-5,71.5,58.0,42.5,43.2,35.4,23.9,88,50,17,30.21,30.11,6,2,15,0.00
2013-5-6,70.3,57.7,41.5,52.1,45.2,36.8,89,64,48,30.17,30.08,9,2,15,0.00
2013-5-7,74.4,63.3,54.2,55.8,52.2,47.1,88,69,41,30.08,29.98,9,3,15,0.00
2013-5-8,63.9,59.7,55.3,59.1,55.8,52.7,95,87,74,30.00,29.90,5,1,13,0.93
2013-5-9,66.9,58.8,53.5,62.8,56.1,51.5,96,91,77,29.99,29.88,5,0,18,0.46
2013-5-10,73.0,59.2,48.8,61.7,55.8,47.9,98,90,62,30.00,29.82,4,1,16,0.81
2013-5-11,65.2,60.6,55.4,61.3,55.8,48.6,96,85,66,29.81,29.72,10,1,15,0.65
2013-5-12,56.0,50.0,40.9,46.9,33.4,23.7,87,55,33,30.00,29.74,12,2,25,0.00
2013-5-13,52.2,43.7,34.4,31.5,26.7,22.9,78,53,33,30.18,29.99,6,1,17,0.00
2013-5-14,61.2,44.5,28.5,44.8,31.3,24.7,92,65,26,30.22,30.02,5,1,11,0.03
2013-5-15,84.9,60.3,44.5,60.7,50.4,42.4,96,73,41,30.01,29.64,11,1,16,0.14
2013-5-16,85.7,69.5,58.0,59.6,49.3,37.1,89,56,21,29.92,29.72,6,1,13,0.00
2013-5-17,78.6,62.8,44.6,45.1,42.0,38.7,89,51,27,30.15,29.93,4,1,10,0.00
2013-5-18,70.4,61.7,52.6,55.0,49.0,41.0,82,64,51,30.20,30.13,4,1,11,0.00
2013-5-19,64.7,60.9,58.1,59.4,57.1,54.3,93,87,83,30.18,30.09,4,1,11,0.00
2013-5-20,85.3,71.5,61.8,66.6,63.1,59.4,95,77,50,30.09,29.91,5,1,10,0.00
2013-5-21,90.1,76.6,61.6,68.5,64.2,60.4,97,70,39,29.94,29.77,9,1,13,0.00
2013-5-22,89.7,75.1,65.3,68.0,62.7,58.3,93,70,35,29.86,29.71,10,1,25,0.07
2013-5-23,80.1,67.8,61.2,65.3,61.3,58.0,94,81,47,29.83,29.70,5,1,12,0.74
2013-5-24,61.0,50.9,44.3,59.2,42.2,31.3,94,73,58,30.19,29.73,6,2,14,0.03
2013-5-25,66.6,51.5,38.5,36.9,33.3,27.7,86,54,25,30.21,30.09,7,1,15,0.00
2013-5-26,72.8,55.2,39.1,38.0,34.0,28.4,84,50,22,30.23,30.12,5,1,13,0.00
2013-5-27,70.4,55.9,35.9,45.0,38.1,32.2,91,56,28,30.28,30.15,4,0,12,0.00
2013-5-28,70.1,59.7,52.6,62.1,54.9,44.3,95,85,62,30.16,30.02,3,1,9,0.41
2013-5-29,87.2,72.8,58.9,65.7,60.3,53.5,97,69,33,30.05,29.99,6,1,15,0.00
2013-5-30,90.7,75.2,58.6,65.9,61.2,56.5,94,66,34,30.14,30.06,5,1,11,0.00
2013-5-31,91.2,77.3,63.1,68.6,62.4,54.4,96,65,32,30.11,29.95,9,1,13,0.00
2013-6-1,89.9,77.7,62.9,66.6,63.5,59.6,91,64,42,29.98,29.80,10,1,14,0.00
2013-6-2,83.4,75.8,68.6,66.9,62.0,54.1,80,64,37,29.82,29.75,10,1,22,0.00
2013-6-3,77.6,67.3,52.6,60.5,53.4,37.8,92,63,35,29.99,29.81,5,1,11,0.00
2013-6-4,77.9,60.7,41.1,50.0,41.7,36.6,91,54,27,30.12,30.00,5,1,12,0.00
2013-6-5,78.3,63.7,44.5,53.1,47.5,41.2,94,60,35,30.20,30.00,5,1,12,0.00
2013-6-6,67.4,63.1,59.9,59.1,53.5,46.7,95,73,53,30.01,29.84,6,2,17,0.36
2013-6-7,68.4,63.7,61.0,63.2,61.2,58.8,96,92,83,29.83,29.70,3,0,9,0.02
2013-6-8,73.7,64.0,56.3,61.4,56.3,52.3,95,78,48,30.10,29.73,6,1,13,0.01
2013-6-9,84.0,67.2,50.7,59.7,54.9,49.6,97,69,32,30.19,30.07,4,1,10,0.00
2013-6-10,73.0,69.1,65.6,67.5,65.0,60.1,96,87,69,30.07,29.74,4,1,14,1.05
2013-6-11,75.4,66.9,61.3,66.2,61.9,59.6,97,85,64,29.84,29.73,4,1,13,0.07
2013-6-12,82.8,70.5,58.6,65.0,61.2,57.2,97,75,49,29.87,29.78,3,0,9,0.00
2013-6-13,75.8,67.4,59.8,67.4,61.9,55.0,96,83,68,29.75,29.44,8,1,18,1.10
2013-6-14,79.0,66.4,56.7,58.4,53.4,51.2,84,65,44,29.97,29.64,3,1,10,0.02
2013-6-15,80.3,66.1,51.4,58.9,51.4,43.8,97,65,28,30.06,29.97,5,1,14,0.00
2013-6-16,76.3,67.2,57.2,64.4,58.0,49.7,82,73,61,30.01,29.82,7,2,19,0.00
2013-6-17,86.7,73.2,61.6,66.7,59.1,49.4,96,66,28,29.92,29.84,4,1,15,0.04
2013-6-18,79.9,68.4,59.0,63.2,59.7,55.3,93,75,52,29.93,29.80,3,0,14,0.00
2013-6-19,77.4,64.8,53.2,54.6,48.0,41.2,88,59,28,30.14,29.93,4,1,12,0.00
2013-6-20,82.6,66.3,47.9,61.6,55.1,46.6,96,70,43,30.24,30.14,5,1,10,0.00
2013-6-21,83.8,72.5,59.9,65.3,61.2,57.5,94,70,49,30.24,30.16,4,1,12,0.00
2013-6-22,87.2,74.9,60.2,67.6,61.7,54.6,85,65,46,30.19,30.05,6,1,13,0.00
2013-6-23,89.9,76.5,65.5,70.1,65.9,62.7,93,72,45,30.13,30.00,6,1,9,0.00
2013-6-24,92.7,78.0,64.8,69.2,65.1,59.0,97,69,34,30.10,29.95,5,1,14,0.00
2013-6-25,86.5,75.6,66.0,72.8,67.2,64.2,96,77,50,29.98,29.81,5,1,14,0.12
2013-6-26,83.2,72.1,64.8,68.7,65.9,63.6,96,82,59,29.90,29.80,2,0,7,0.31
2013-6-27,76.8,68.2,62.1,69.5,65.8,61.2,97,92,76,29.81,29.56,3,0,10,3.63
2013-6-28,81.6,69.5,60.7,69.3,64.9,58.6,98,86,62,29.57,29.46,4,0,19,0.24
2013-6-29,84.0,68.3,57.3,68.9,61.3,56.1,97,81,44,29.68,29.50,6,1,17,0.30
2013-6-30,87.2,71.4,61.2,69.8,64.6,60.0,97,82,48,29.86,29.67,3,0,18,0.57
2013-7-1,79.9,70.1,65.8,71.6,67.9,64.9,97,93,72,29.94,29.81,3,0,7,0.25
2013-7-2,83.8,74.2,68.1,72.9,69.7,67.2,98,87,68,30.08,29.94,5,1,11,0.07
2013-7-3,85.9,75.8,70.1,71.1,68.9,66.6,94,80,59,30.17,30.07,3,1,9,0.02
2013-7-4,89.5,79.0,70.6,72.3,70.0,67.5,95,76,49,30.18,30.10,6,1,10,0.00
2013-7-5,88.8,79.9,69.9,72.8,70.1,67.7,93,74,52,30.14,30.05,6,1,14,0.00
2013-7-6,91.2,78.8,67.6,73.3,69.8,66.6,97,77,48,30.15,30.01,3,0,9,0.00
2013-7-7,87.6,74.8,66.9,71.7,68.8,65.7,97,83,53,30.05,29.97,4,0,14,1.50
2013-7-8,82.6,72.0,66.3,70.8,67.5,65.4,98,87,59,30.07,29.99,4,0,11,0.18
2013-7-9,79.4,73.0,67.6,71.3,69.1,66.7,97,88,74,30.07,29.95,4,1,12,0.01
2013-7-10,85.1,74.4,66.8,73.2,69.4,65.5,97,86,59,29.95,29.78,4,1,13,1.24
2013-7-11,82.6,71.7,63.9,66.7,62.4,57.0,97,76,43,29.95,29.81,3,0,6,0.00
2013-7-12,75.4,67.4,62.1,65.3,62.1,59.6,93,84,69,30.10,29.95,3,0,10,0.34
2013-7-13,83.4,71.0,65.0,71.2,67.1,63.7,97,88,62,30.24,30.07,3,0,6,0.04
2013-7-14,89.9,78.2,67.6,73.3,69.1,66.1,96,76,48,30.30,30.23,5,1,10,0.00
2013-7-15,94.3,78.9,66.6,72.8,69.6,65.6,97,76,46,30.29,30.18,3,0,6,0.00
2013-7-16,94.7,81.4,69.4,73.4,69.8,66.8,97,72,41,30.27,30.16,3,0,7,0.00
2013-7-17,94.9,81.2,69.1,73.3,70.9,67.9,97,74,47,30.23,30.08,3,0,9,0.00
2013-7-18,95.4,81.9,71.8,77.9,71.6,66.8,96,74,46,30.11,29.97,3,0,10,0.00
2013-7-19,93.4,82.2,69.8,76.0,70.8,68.2,96,71,47,29.98,29.80,7,1,13,0.00
2013-7-20,89.7,79.9,72.7,70.9,67.8,63.8,84,68,48,29.85,29.75,13,1,15,0.00
2013-7-21,88.2,75.4,66.4,69.2,66.9,62.4,96,78,43,29.93,29.86,3,0,15,3.07
2013-7-22,84.0,71.2,63.9,72.9,68.2,63.1,98,91,67,29.92,29.74,2,0,7,0.45
2013-7-23,87.0,73.9,66.1,69.1,66.2,59.8,97,80,45,29.73,29.62,3,0,10,0.00
2013-7-24,76.3,68.5,59.6,64.5,57.2,51.7,95,70,45,29.96,29.68,6,1,10,0.00
2013-7-25,76.8,62.5,50.1,56.1,52.7,49.0,96,73,43,30.07,29.98,3,0,10,0.00
2013-7-26,82.8,66.4,49.6,58.2,54.7,48.7,97,71,38,30.11,29.99,3,0,9,0.00
2013-7-27,74.6,67.3,56.7,67.9,62.3,55.1,96,85,71,30.01,29.86,3,0,11,0.03
2013-7-28,82.4,71.1,60.9,65.7,61.0,54.0,96,74,39,29.98,29.83,5,1,13,1.02
2013-7-29,75.8,64.8,52.6,57.1,53.8,49.3,97,71,43,30.15,30.00,5,1,11,0.00
2013-7-30,79.9,65.3,51.9,59.2,55.3,50.7,97,74,44,30.22,30.13,3,0,9,0.00
2013-7-31,81.8,68.2,54.1,63.5,58.2,52.9,97,74,40,30.16,29.95,2,0,10,0.00
2013-8-1,84.0,72.4,64.8,67.2,63.2,60.5,87,74,47,29.94,29.78,6,1,10,0.00
2013-8-2,80.1,68.4,56.7,63.1,57.1,51.6,97,71,39,29.93,29.85,7,1,16,0.00
2013-8-3,82.0,69.5,59.8,67.0,61.6,54.3,95,78,45,29.95,29.85,4,0,12,0.22
2013-8-4,76.5,63.3,51.0,60.8,53.7,49.8,97,74,45,30.05,29.93,2,0,11,0.02
2013-8-5,76.1,62.7,49.5,57.5,52.4,48.4,97,73,43,30.12,30.02,3,0,6,0.00
2013-8-6,77.2,65.2,56.0,62.6,58.0,53.9,94,79,56,30.06,30.00,5,1,16,0.00
2013-8-7,74.2,68.0,63.5,67.6,64.2,60.0,96,88,80,30.04,29.96,4,0,7,0.43
2013-8-8,84.9,72.0,61.3,72.1,67.5,60.6,98,87,63,30.00,29.91,7,1,9,0.01
2013-8-9,83.2,74.6,66.4,74.4,70.5,63.9,96,88,67,29.95,29.82,2,0,7,0.25
2013-8-10,84.3,71.0,61.3,65.4,61.1,58.6,95,74,43,30.07,29.95,4,0,10,0.00
2013-8-11,84.0,69.6,58.0,67.0,61.3,56.5,96,77,48,30.13,30.00,5,0,6,0.00
2013-8-12,84.1,72.0,61.0,65.2,62.7,59.6,98,76,46,30.04,29.88,3,0,10,0.00
2013-8-13,84.0,70.1,58.6,66.8,61.2,48.0,96,76,43,29.89,29.72,3,0,12,0.01
2013-8-14,73.0,59.5,48.3,55.0,49.1,45.2,90,70,41,30.10,29.89,4,0,11,0.00
2013-8-15,78.5,60.8,44.9,54.3,47.8,43.8,97,69,32,30.19,30.08,5,0,9,0.00
2013-8-16,80.3,63.5,47.9,56.4,50.9,46.8,97,69,32,30.18,30.12,3,0,6,0.00
2013-8-17,78.1,63.8,49.4,59.0,53.4,48.3,97,73,39,30.29,30.18,2,0,6,0.00
2013-8-18,72.3,64.3,58.6,59.9,56.9,54.9,95,79,56,30.26,30.16,4,0,7,0.00
2013-8-19,79.6,66.6,58.7,65.6,61.2,56.3,95,84,60,30.16,30.03,3,0,6,0.13
2013-8-20,86.3,71.4,58.7,65.7,60.0,54.4,98,73,36,30.16,30.06,3,0,7,0.00
2013-8-21,86.1,71.1,56.0,66.5,61.2,54.8,97,74,43,30.20,30.03,5,1,7,0.00
2013-8-22,85.5,73.8,66.0,67.2,65.4,63.1,95,77,48,30.04,29.90,5,1,14,0.01
2013-8-23,82.6,69.0,61.2,65.3,61.0,52.7,97,79,40,30.15,29.94,2,0,5,0.00
2013-8-24,82.4,65.9,49.1,58.7,52.5,46.2,98,68,29,30.32,30.16,2,0,7,0.00
2013-8-25,84.0,67.4,49.6,60.8,55.4,48.5,97,70,38,30.40,30.21,4,0,12,0.00
2013-8-26,87.6,73.7,59.9,66.8,61.1,57.5,92,68,43,30.21,29.95,12,1,13,0.01
2013-8-27,89.7,77.6,69.1,70.5,67.2,64.4,93,73,44,29.95,29.83,2,0,11,0.02
2013-8-28,82.4,73.7,70.4,71.6,70.1,69.2,97,90,66,29.89,29.79,3,0,7,0.37
2013-8-29,89.3,75.7,68.4,70.7,66.8,59.8,97,78,38,30.00,29.87,2,0,6,0.00
2013-8-30,89.7,75.1,61.2,69.7,64.4,60.3,98,73,40,29.99,29.80,5,1,12,0.00
2013-8-31,89.0,76.6,66.9,71.4,67.4,60.7,95,75,39,29.81,29.72,5,1,12,0.00
2013-9-1,84.0,76.1,69.3,70.5,68.8,66.9,93,79,62,29.81,29.74,4,0,7,0.00
2013-9-2,89.3,74.0,65.0,70.0,66.5,63.0,97,81,46,29.77,29.68,4,0,11,0.79
2013-9-3,73.9,65.7,58.6,64.7,58.0,53.6,98,78,51,29.98,29.74,3,1,13,0.00
2013-9-4,79.8,65.8,52.9,59.1,55.2,51.7,97,72,42,30.07,29.97,7,1,15,0.00
2013-9-5,79.8,67.6,55.7,58.4,49.8,40.2,85,58,26,30.18,29.97,5,1,11,0.00
2013-9-6,73.3,57.4,40.5,46.8,40.4,28.1,96,60,19,30.30,30.15,4,0,7,0.00
2013-9-7,81.6,62.7,43.1,56.3,45.0,36.4,93,59,21,30.14,29.91,3,1,10,0.00
2013-9-8,79.0,67.3,56.2,63.4,57.4,49.9,90,72,46,30.09,29.86,2,0,9,0.00
2013-9-9,73.9,60.0,44.8,57.3,49.5,43.4,96,71,42,30.20,30.08,5,1,15,0.00
2013-9-10,93.8,75.5,59.3,72.0,65.1,57.1,95,73,46,30.11,30.01,6,1,13,0.00
2013-9-11,89.7,74.8,69.1,74.4,70.4,67.9,97,88,57,30.10,29.98,3,1,13,0.30
2013-9-12,84.1,71.0,65.6,73.1,66.6,60.0,98,87,61,29.96,29.73,5,1,20,0.10
2013-9-13,64.7,60.4,58.0,58.3,56.9,56.0,94,89,80,29.76,29.73,0,0,3,0.00
2013-9-23,62.9,50.9,43.2,44.3,43.0,41.2,94,76,45,30.11,30.05,1,0,5,0.00
2013-9-24,74.0,52.4,34.7,47.9,41.8,33.9,98,73,32,30.15,29.97,2,0,6,0.00
2013-9-25,73.5,53.5,37.8,50.0,43.6,35.5,98,75,25,30.02,29.90,4,0,6,0.00
2013-9-26,74.4,55.8,38.8,51.7,45.3,37.7,97,73,32,30.10,29.96,3,0,9,0.00
2013-9-27,73.7,59.8,50.5,55.9,51.4,48.2,94,76,44,30.23,30.09,2,0,5,0.00
2013-9-28,67.8,54.2,43.1,54.3,48.2,42.0,98,82,51,30.33,30.22,3,0,7,0.00
2013-9-29,72.5,54.4,40.2,54.0,46.5,39.4,98,79,44,30.22,30.06,5,1,10,0.00
2013-9-30,77.4,58.8,43.2,55.0,49.3,42.1,97,75,40,30.08,29.96,3,0,9,0.00
2013-10-1,79.4,63.7,55.3,61.1,55.4,53.0,96,78,42,30.06,29.94,7,0,12,0.00
2013-10-2,80.7,67.4,54.4,62.2,58.6,52.8,97,76,49,30.05,29.98,5,1,12,0.00
2013-10-3,78.1,65.3,54.7,63.6,59.5,53.8,98,83,58,30.12,30.01,4,0,7,0.00
2013-10-4,84.9,71.5,61.3,66.6,62.6,59.5,96,76,44,30.07,29.97,4,0,11,0.00
2013-10-5,83.6,70.3,60.7,67.7,63.9,59.7,97,82,53,30.07,29.97,3,0,9,0.01
2013-10-6,86.1,72.7,61.8,67.7,62.7,58.2,97,74,39,29.98,29.81,7,1,15,0.00
2013-10-7,74.4,61.8,50.1,63.9,53.4,41.3,95,75,51,30.07,29.67,12,2,20,1.05
2013-10-8,68.3,53.8,42.5,49.0,43.1,40.4,97,71,37,30.33,30.07,3,0,9,0.00
2013-10-9,64.7,50.8,38.9,46.0,39.8,31.5,97,71,31,30.40,30.29,3,0,10,0.00
2013-10-10,58.4,49.2,40.3,50.6,45.1,38.9,96,87,57,30.29,30.12,2,0,5,0.50
2013-10-11,56.5,52.3,48.5,54.2,51.1,47.4,98,96,91,30.12,30.05,2,0,6,0.74
2013-10-12,74.0,59.0,51.4,55.6,49.6,43.2,98,75,36,30.21,30.08,2,0,6,0.00
2013-10-13,65.5,59.4,55.1,55.1,52.6,46.0,90,79,64,30.32,30.20,3,0,10,0.00
2013-10-14,61.6,56.9,52.6,54.3,52.0,47.2,94,84,74,30.33,30.24,3,0,5,0.02
2013-10-15,72.3,60.4,51.7,56.5,52.7,49.1,97,77,52,30.26,30.04,4,0,11,0.00
2013-10-16,62.7,58.9,54.7,56.1,52.1,45.1,88,78,67,30.04,29.86,6,0,7,0.00
2013-10-17,67.6,59.9,52.3,60.2,54.1,46.3,94,82,59,29.90,29.62,6,1,15,0.25
2013-10-18,62.4,52.0,41.5,46.2,41.3,36.3,90,69,39,30.01,29.81,6,2,17,0.00
2013-10-19,55.9,45.9,34.3,50.3,42.1,33.0,97,87,66,30.00,29.75,5,1,17,0.10
2013-10-20,60.4,47.8,39.1,38.6,35.7,32.5,88,65,37,30.06,29.86,7,1,15,0.00
2013-10-21,66.6,49.8,33.5,41.0,36.5,31.9,95,65,31,30.13,29.87,6,1,13,0.00
2013-10-22,55.9,49.7,38.2,45.5,35.9,27.0,80,60,36,29.89,29.78,9,1,18,0.00
2013-10-23,44.9,40.9,37.8,38.4,34.7,31.6,85,79,63,29.88,29.72,2,0,7,0.05
2013-10-24,45.1,39.7,34.9,33.5,29.3,24.5,89,67,46,30.09,29.88,5,1,16,0.00
2013-10-25,50.7,40.4,34.1,35.1,30.5,26.2,84,69,44,30.27,30.09,7,1,12,0.00
2013-10-26,53.3,41.4,27.5,29.7,25.6,19.1,92,59,28,30.27,29.90,7,2,18,0.00
2013-10-27,48.3,42.5,30.4,35.7,30.9,27.2,88,64,50,30.15,29.91,9,2,23,0.00
2013-10-28,62.3,41.8,27.3,37.0,31.0,25.2,93,70,31,30.32,30.14,4,0,9,0.00
2013-10-29,58.3,42.8,30.0,38.0,34.3,28.5,96,74,43,30.44,30.31,1,0,6,0.00
2013-10-30,66.8,47.3,33.5,46.0,38.3,31.7,96,74,40,30.32,30.12,3,0,5,0.00
2013-10-31,63.7,58.5,52.9,57.8,54.1,46.1,93,86,75,30.14,29.63,9,2,17,0.28
2013-11-1,65.6,58.9,45.1,57.9,47.8,38.7,91,70,38,29.70,29.37,16,3,33,0.33
2013-11-2,56.0,46.7,38.0,44.4,40.4,36.4,96,81,50,29.86,29.64,6,1,21,0.06
2013-11-3,50.5,41.1,28.4,42.7,28.4,18.8,90,62,33,30.51,29.86,4,1,11,0.00
2013-11-4,41.6,32.7,20.3,23.0,18.0,10.9,90,58,28,30.66,30.52,3,1,10,0.00
2013-11-5,51.7,43.0,34.7,38.6,29.1,18.5,86,59,47,30.62,30.42,7,1,16,0.00
2013-11-6,64.5,53.4,39.9,50.2,45.2,37.4,93,75,55,30.42,29.91,6,2,16,0.00
2013-11-7,59.6,48.5,35.6,51.9,40.2,23.2,95,74,53,30.07,29.82,6,1,16,0.34
2013-11-8,43.6,38.4,32.4,31.9,28.1,24.0,78,67,56,30.29,30.04,4,1,20,0.01
2013-11-9,51.9,39.4,26.3,29.3,25.7,21.1,88,61,30,30.32,29.92,7,1,14,0.00
2013-11-10,52.8,47.2,40.9,35.0,29.3,22.4,64,50,31,30.19,29.89,15,3,32,0.00
2013-11-11,51.6,43.6,33.8,31.9,26.7,13.5,80,55,22,30.26,29.99,5,2,18,0.00
2013-11-12,43.3,32.5,27.5,36.2,21.4,12.5,91,65,34,30.42,30.02,5,1,12,0.05
2013-11-13,40.2,30.9,25.6,21.4,18.2,16.4,71,60,41,30.49,30.34,7,1,14,0.00
2013-11-14,53.8,37.7,27.3,18.0,13.4,5.5,61,40,14,30.34,30.18,8,2,15,0.00
2013-11-15,58.7,40.8,25.6,32.6,19.9,14.9,74,47,19,30.26,30.14,3,0,13,0.00
2013-11-16,58.6,48.6,34.9,45.7,38.9,32.8,94,71,50,30.30,30.15,5,1,12,0.00
2013-11-17,58.3,53.8,50.4,55.4,50.9,45.7,94,90,84,30.16,29.57,9,2,18,0.32
2013-11-18,57.2,50.6,40.8,47.7,33.2,24.0,91,53,31,29.95,29.59,11,4,25,0.22
2013-11-19,42.2,35.8,25.1,28.9,23.1,19.5,80,60,48,30.44,29.97,10,1,16,0.00
2013-11-20,43.2,30.5,21.6,23.4,16.9,10.2,88,61,26,30.60,30.44,4,0,12,0.00
2013-11-21,43.6,37.6,29.0,34.8,26.7,14.9,75,65,52,30.56,30.34,4,1,14,0.00
2013-11-22,50.2,45.1,41.2,49.1,41.9,31.8,96,89,69,30.34,30.02,6,0,11,0.06
2013-11-23,39.3,31.8,20.8,30.0,20.2,5.1,78,63,43,30.23,30.04,9,2,20,0.00
2013-11-24,27.3,21.2,17.2,12.9,6.3,-1.0,73,54,29,30.50,30.23,8,1,14,0.00
2013-11-25,32.4,24.4,14.0,9.4,7.4,5.4,74,50,33,30.54,30.27,6,1,12,0.00
2013-11-26,32.5,30.7,27.6,31.4,27.8,9.3,96,90,38,30.29,29.75,5,0,14,1.30
2013-11-27,34.0,30.8,23.5,32.5,27.5,16.7,97,88,71,29.99,29.60,3,0,17,0.26
2013-11-28,27.0,24.7,22.4,20.6,17.2,15.0,83,73,65,30.47,30.01,7,1,17,0.00
2013-11-29,32.8,26.9,20.5,22.1,20.1,16.9,89,76,59,30.75,30.46,2,0,6,0.01
2013-11-30,30.9,22.7,12.6,18.7,15.7,9.7,90,76,59,30.75,30.37,4,1,12,0.00
2013-12-1,33.5,26.7,17.3,26.6,21.6,14.6,90,81,71,30.35,30.05,2,0,5,0.00
2013-12-2,41.3,33.3,28.4,32.9,29.1,25.8,91,85,70,30.04,29.88,1,0,4,0.00
2013-12-3,44.9,35.0,29.5,35.8,31.6,27.9,95,88,68,30.01,29.89,1,0,3,0.00
2013-12-4,49.1,36.0,29.4,39.0,33.3,28.1,97,90,68,30.13,30.01,2,0,4,0.01
2013-12-5,55.7,51.5,40.6,52.1,48.9,37.6,97,91,82,30.04,29.88,7,1,11,0.71
2013-12-6,49.4,38.6,31.6,48.5,36.6,30.5,97,93,79,30.23,29.93,2,0,7,0.53
2013-12-7,32.9,28.1,19.5,30.4,22.9,12.8,96,82,62,30.62,30.23,0,0,0,0.04
2013-12-8,25.4,20.6,13.3,23.4,16.5,9.9,92,84,71,30.62,30.33,0,0,0,0.00
2013-12-9,37.2,32.0,25.7,34.5,28.4,23.7,95,87,68,30.31,30.01,12,1,15,0.12
2013-12-10,32.1,28.3,23.2,22.9,16.2,6.9,81,61,41,30.21,29.99,13,2,29,0.00
2013-12-11,30.0,23.8,19.1,18.8,11.4,7.7,85,59,41,30.36,30.21,12,2,16,0.00
2013-12-12,22.9,18.8,15.1,15.2,4.3,-1.0,80,53,37,30.46,30.22,11,2,17,0.00
2013-12-13,32.5,25.6,20.2,18.1,10.1,1.5,71,52,40,30.32,30.18,8,2,17,0.01
2013-12-14,27.9,26.1,23.6,25.5,21.6,17.4,94,83,71,30.36,29.83,6,2,14,0.00
2013-12-15,33.1,28.2,22.9,31.4,23.3,10.7,95,82,59,29.96,29.65,11,2,23,0.00
2013-12-16,26.4,19.3,15.2,13.6,7.5,4.6,74,60,44,30.22,29.98,11,1,15,0.02
2013-12-17,29.7,21.6,16.4,25.1,17.7,9.9,90,85,67,30.18,29.97,2,0,3,0.00
2013-12-18,31.3,26.8,16.9,22.8,18.7,14.4,92,72,56,30.20,30.03,6,2,19,0.00
2013-12-19,50.5,31.4,14.3,31.6,22.6,10.8,89,72,46,30.16,30.03,5,0,14,0.33
2013-12-20,52.9,39.0,30.6,46.5,34.0,28.0,91,82,70,30.06,29.92,2,0,10,0.04
2013-12-21,55.7,49.7,40.5,54.5,46.9,38.0,97,91,75,29.95,29.79,4,0,11,0.54
2013-12-22,63.1,59.4,51.1,57.7,53.4,49.1,97,81,67,29.92,29.64,11,2,20,0.02
2013-12-23,56.3,44.3,32.1,50.3,37.2,20.0,94,76,59,30.25,29.90,6,1,16,0.01
2013-12-24,32.2,26.3,17.2,23.8,14.9,5.8,79,62,48,30.49,30.21,5,1,20,0.00
2013-12-25,25.3,19.6,11.1,11.6,8.8,6.1,84,64,50,30.58,30.34,4,0,12,0.00
2013-12-26,33.8,27.5,22.9,27.6,19.4,11.5,86,72,55,30.36,30.20,11,1,19,0.02
2013-12-27,39.3,29.4,20.0,23.6,19.5,14.8,82,67,50,30.38,30.29,3,0,13,0.00
2013-12-28,55.1,40.1,25.4,26.4,23.7,19.7,83,54,31,30.28,30.08,6,1,17,0.00
2013-12-29,40.8,36.7,35.0,38.4,31.8,24.7,97,84,58,30.06,29.65,1,0,9,1.01
2013-12-30,40.6,29.7,20.3,37.1,20.1,9.9,90,68,47,30.23,29.79,5,1,15,0.01
2013-12-31,27.2,22.6,19.2,22.9,13.1,7.6,87,67,45,30.33,30.09,9,2,23,0.00
2014-1-1,29.0,24.3,20.2,20.8,18.1,13.3,89,77,68,30.40,30.19,3,0,10,0.00
2014-1-2,25.1,21.9,13.3,20.9,18.8,9.1,91,88,83,30.18,29.77,5,1,12,0.00